ADDS TAF Data INFO
IDs: Format: Raw Decoded Include METARs

Data at: 2149 UTC 25 Feb 2018

KTCS 252053Z AUTO 36014G25KT 10SM CLR 12/M18 A3009 RMK AO2 SLP168 T01171178 58010

KTCS 251720Z 2518/2618 33013KT P6SM SKC
  FM260200 33007KT P6SM SKC